Time;durP1;ratioP1;P1;durP2;ratioP2;P2;SDS_P1;SDS_P2;PMS_P1;PMS_P2;Temp;Humidity;BMP_temperature;BMP_pressure;BME280_temperature;BME280_humidity;BME280_pressure;Samples;Min_cycle;Max_cycle;Signal;HPM_P1;HPM_P2
2023/02/03 00:05:35;;;;;;;21.60;10.80;;;;;;;0.32;100.00;99543.99;272995;1272;22387;-90
2023/02/03 00:11:37;;;;;;;19.40;10.10;;;;;;;0.31;100.00;99545.09;270722;1272;24273;-90
2023/02/03 00:17:39;;;;;;;22.70;10.40;;;;;;;0.29;100.00;99548.98;270775;1272;23044;-90
2023/02/03 00:23:41;;;;;;;23.00;11.30;;;;;;;0.29;100.00;99547.97;272778;1272;22190;-91
2023/02/03 00:29:43;;;;;;;26.40;11.30;;;;;;;0.28;100.00;99559.98;272803;1272;23340;-91
2023/02/03 00:35:45;;;;;;;21.10;11.00;;;;;;;0.26;100.00;99570.30;272876;1272;22188;-90
2023/02/03 00:41:47;;;;;;;22.20;10.40;;;;;;;0.25;100.00;99579.05;273054;1272;22334;-90
2023/02/03 00:47:49;;;;;;;17.20;9.30;;;;;;;0.23;100.00;99585.06;271487;1272;22489;-90
2023/02/03 00:53:51;;;;;;;20.50;10.30;;;;;;;0.19;100.00;99584.79;271354;1272;22584;-90
2023/02/03 00:59:53;;;;;;;17.70;9.50;;;;;;;0.16;100.00;99582.37;270004;1272;23208;-90
2023/02/03 01:05:55;;;;;;;18.50;9.50;;;;;;;0.13;100.00;99585.70;270233;1272;23463;-91
2023/02/03 01:11:58;;;;;;;17.80;10.50;;;;;;;0.12;100.00;99588.08;272902;1272;22335;-91
2023/02/03 01:18:00;;;;;;;23.60;10.70;;;;;;;0.11;100.00;99594.61;272920;1272;22394;-90
2023/02/03 01:24:02;;;;;;;17.90;9.30;;;;;;;0.09;100.00;99592.86;272551;1272;22747;-90
2023/02/03 01:30:04;;;;;;;20.50;10.40;;;;;;;0.09;100.00;99591.52;269965;1272;22354;-89
2023/02/03 01:36:09;;;;;;;20.20;9.20;;;;;;;0.08;100.00;99595.14;272790;1272;23490;-91
2023/02/03 01:42:15;;;;;;;17.40;8.80;;;;;;;0.07;100.00;99598.33;272778;1272;24053;-91
2023/02/03 01:48:17;;;;;;;18.90;8.10;;;;;;;0.07;100.00;99589.79;272812;1272;23245;-90
2023/02/03 01:54:26;;;;;;;17.00;8.40;;;;;;;0.06;100.00;99587.41;271520;1272;22412;-91
2023/02/03 02:00:28;;;;;;;17.50;8.50;;;;;;;0.05;100.00;99584.42;272515;1272;22566;-91
2023/02/03 02:06:30;;;;;;;17.90;7.80;;;;;;;0.04;100.00;99585.13;268877;1273;22564;-92
2023/02/03 02:12:32;;;;;;;21.60;9.00;;;;;;;-0.01;100.00;99575.62;268615;1272;22636;-91
2023/02/03 02:19:01;;;;;;;19.50;9.80;;;;;;;-0.04;100.00;99564.46;272600;1272;22483;-91
2023/02/03 02:25:23;;;;;;;26.50;10.70;;;;;;;-0.06;100.00;99563.27;272817;1273;22195;-91
2023/02/03 02:31:32;;;;;;;19.90;8.60;;;;;;;-0.08;100.00;99560.88;270946;1272;23198;-90
2023/02/03 02:37:47;;;;;;;18.70;9.30;;;;;;;-0.11;100.00;99561.67;271954;1273;22349;-91
2023/02/03 02:44:07;;;;;;;22.40;10.50;;;;;;;-0.16;100.00;99569.48;272744;1272;22335;-91
2023/02/03 02:50:24;;;;;;;19.20;9.00;;;;;;;-0.23;100.00;99576.70;272806;1274;22394;-91
2023/02/03 02:56:27;;;;;;;24.60;10.70;;;;;;;-0.23;100.00;99581.02;272790;1272;23112;-91
2023/02/03 03:02:34;;;;;;;17.50;9.40;;;;;;;-0.24;100.00;99572.83;271604;1273;22617;-90
2023/02/03 03:08:46;;;;;;;23.80;10.30;;;;;;;-0.27;100.00;99562.20;270474;1273;23084;-91
2023/02/03 03:14:56;;;;;;;21.40;9.00;;;;;;;-0.31;100.00;99547.77;270667;1272;22237;-91
2023/02/03 03:21:04;;;;;;;24.60;9.10;;;;;;;-0.40;100.00;99530.64;272368;1273;22538;-91
2023/02/03 03:27:31;;;;;;;21.80;10.70;;;;;;;-0.50;100.00;99523.37;268614;1272;22559;-90
2023/02/03 03:33:33;;;;;;;22.20;11.60;;;;;;;-0.54;100.00;99532.02;269784;1272;22550;-91
2023/02/03 03:39:41;;;;;;;20.80;11.50;;;;;;;-0.53;100.00;99549.83;270837;1272;22392;-92
2023/02/03 03:45:48;;;;;;;19.70;8.90;;;;;;;-0.54;100.00;99556.67;271714;1276;22423;-91
2023/02/03 03:52:03;;;;;;;19.70;7.60;;;;;;;-0.60;100.00;99560.23;272830;1272;23139;-92
2023/02/03 03:58:08;;;;;;;20.40;8.60;;;;;;;-0.69;100.00;99560.83;272607;1273;22368;-91
2023/02/03 04:04:11;;;;;;;12.20;6.10;;;;;;;-0.78;100.00;99546.60;270688;1273;22458;-91
2023/02/03 04:10:32;;;;;;;13.10;5.40;;;;;;;-0.89;100.00;99531.47;272730;1272;22316;-91
2023/02/03 04:16:34;;;;;;;15.60;6.60;;;;;;;-0.98;100.00;99522.60;271007;1272;22884;-92
2023/02/03 04:22:36;;;;;;;12.60;6.70;;;;;;;-1.04;100.00;99511.42;269424;1272;22567;-92
2023/02/03 04:28:38;;;;;;;17.70;8.30;;;;;;;-1.08;100.00;99503.33;268755;1272;22565;-92
2023/02/03 04:34:40;;;;;;;21.00;9.40;;;;;;;-1.13;100.00;99503.76;268689;1272;22609;-91
2023/02/03 04:40:44;;;;;;;17.30;9.60;;;;;;;-1.16;100.00;99508.67;269025;1272;22541;-91
2023/02/03 04:46:46;;;;;;;20.40;10.20;;;;;;;-1.15;100.00;99514.20;269302;1272;22558;-90
2023/02/03 04:52:48;;;;;;;19.70;10.10;;;;;;;-1.17;100.00;99502.39;269162;1272;22563;-91
2023/02/03 04:58:50;;;;;;;16.80;9.30;;;;;;;-1.20;100.00;99495.08;269050;1272;22538;-91
2023/02/03 05:04:52;;;;;;;16.00;9.50;;;;;;;-1.21;100.00;99488.90;269410;1272;22550;-91
2023/02/03 05:10:54;;;;;;;20.50;11.40;;;;;;;-1.22;100.00;99487.67;268876;1272;25255;-91
2023/02/03 05:16:59;;;;;;;23.20;13.50;;;;;;;-1.23;100.00;99489.30;269097;1273;22488;-91
2023/02/03 05:23:04;;;;;;;26.30;13.70;;;;;;;-1.24;100.00;99490.60;269108;1272;22196;-91
2023/02/03 05:29:06;;;;;;;20.90;10.80;;;;;;;-1.26;100.00;99480.10;268682;1272;22230;-91
2023/02/03 05:35:12;;;;;;;18.10;9.70;;;;;;;-1.27;100.00;99468.30;270067;1268;22777;-91
2023/02/03 05:47:48;;;;;;;21.30;9.40;;;;;;;-1.29;100.00;99442.15;269428;1264;22235;-91
2023/02/03 05:54:00;;;;;;;25.90;11.00;;;;;;;-1.28;100.00;99441.03;269471;1271;22451;-92
2023/02/03 06:00:20;;;;;;;20.00;9.50;;;;;;;-1.29;100.00;99442.42;269353;1272;22993;-93
2023/02/03 06:06:36;;;;;;;23.50;10.40;;;;;;;-1.30;100.00;99424.97;269106;1272;23224;-92
2023/02/03 06:12:47;;;;;;;17.00;10.10;;;;;;;-1.29;100.00;99418.84;269078;1272;22538;-91
2023/02/03 06:19:00;;;;;;;23.40;9.80;;;;;;;-1.28;100.00;99408.19;269325;1266;24331;-92
2023/02/03 06:25:23;;;;;;;15.90;7.90;;;;;;;-1.28;100.00;99395.09;270198;1273;23254;-92
2023/02/03 06:31:49;;;;;;;25.00;11.10;;;;;;;-1.30;100.00;99386.52;270284;1272;22584;-92
2023/02/03 06:38:15;;;;;;;17.70;9.80;;;;;;;-1.30;100.00;99371.63;270064;1272;22492;-92
2023/02/03 06:45:05;;;;;;;17.70;10.20;;;;;;;-1.28;100.00;99361.34;270756;1272;22558;-91
2023/02/03 06:51:51;;;;;;;20.70;8.90;;;;;;;-1.25;100.00;99352.86;270656;1272;22568;-92
2023/02/03 06:58:19;;;;;;;19.00;8.00;;;;;;;-1.22;100.00;99343.22;270305;1272;22585;-91
2023/02/03 07:04:47;;;;;;;17.70;7.10;;;;;;;-1.16;100.00;99346.14;270226;1272;22573;-92
2023/02/03 07:19:38;;;;;;;;;;;;;;;;;;;;;
2023/02/03 07:26:41;;;;;;;;;;;;;;;;;;;;;
2023/02/03 07:33:08;;;;;;;13.00;5.90;;;;;;;-0.80;100.00;99315.88;269888;1272;22650;-91
2023/02/03 07:39:20;;;;;;;11.90;5.60;;;;;;;-0.70;100.00;99308.73;269975;1272;22561;-92
2023/02/03 07:46:01;;;;;;;12.60;5.10;;;;;;;-0.61;100.00;99301.14;269465;1272;22756;-93
2023/02/03 07:53:01;;;;;;;9.80;4.60;;;;;;;-0.53;100.00;99282.78;269907;1271;22994;-92
2023/02/03 07:59:08;;;;;;;11.90;4.40;;;;;;;-0.44;100.00;99276.39;269994;1272;22234;-93
2023/02/03 08:05:21;;;;;;;15.00;5.80;;;;;;;-0.37;100.00;99259.44;269489;1272;22536;-93
2023/02/03 08:11:45;;;;;;;13.50;6.90;;;;;;;-0.33;100.00;99248.86;269376;1272;23069;-92
2023/02/03 08:17:58;;;;;;;14.60;6.30;;;;;;;-0.25;100.00;99241.98;266834;1271;5348054;-92
2023/02/03 08:24:50;;;;;;;16.00;6.80;;;;;;;-0.20;100.00;99237.66;269563;1270;22575;-92
2023/02/03 08:31:12;;;;;;;16.40;6.90;;;;;;;-0.13;99.87;99218.45;270351;1272;22625;-92
2023/02/03 08:37:23;;;;;;;9.20;4.40;;;;;;;-0.06;99.90;99202.63;270183;1272;22846;-91
2023/02/03 08:43:33;;;;;;;9.30;3.90;;;;;;;0.02;99.47;99197.27;268745;1272;24366;-89
2023/02/03 08:49:49;;;;;;;10.60;4.10;;;;;;;0.06;98.78;99185.66;269903;1272;22427;-90
2023/02/03 08:56:06;;;;;;;9.00;4.10;;;;;;;0.13;98.46;99176.95;270073;1272;22725;-91
2023/02/03 09:02:17;;;;;;;9.40;3.90;;;;;;;0.22;98.00;99162.76;270234;1272;22713;-90
2023/02/03 09:08:27;;;;;;;8.00;3.70;;;;;;;0.35;98.00;99154.42;271978;1273;22639;-92
2023/02/03 09:14:30;;;;;;;7.70;3.30;;;;;;;0.51;97.41;99154.27;270509;1273;25385;-90
2023/02/03 09:20:33;;;;;;;9.60;4.20;;;;;;;0.65;96.74;99153.77;268923;1273;22195;-91
2023/02/03 09:26:34;;;;;;;12.70;5.10;;;;;;;0.82;96.38;99147.47;270133;1273;22559;-91
2023/02/03 09:32:37;;;;;;;11.40;3.90;;;;;;;1.00;95.72;99137.25;269851;1272;23495;-90
2023/02/03 09:38:39;;;;;;;8.50;3.90;;;;;;;1.13;94.81;99127.61;272489;1272;23834;-88
2023/02/03 09:44:47;;;;;;;18.80;6.40;;;;;;;1.24;94.05;99116.91;272664;1272;22238;-91
2023/02/03 09:50:50;;;;;;;25.10;9.20;;;;;;;1.30;93.80;99109.20;271734;1272;22460;-90
2023/02/03 09:56:54;;;;;;;11.90;5.50;;;;;;;1.38;93.77;99094.15;269543;1272;22568;-90
2023/02/03 10:03:06;;;;;;;7.10;3.70;;;;;;;1.41;93.47;99078.27;269052;1256;22223;-90
2023/02/03 10:09:56;;;;;;;9.20;4.30;;;;;;;1.46;93.28;99067.05;271121;1272;25495;-90
2023/02/03 10:15:58;;;;;;;;;;;;;;;1.52;93.29;99046.20;268207;1272;24959;-89
2023/02/03 10:22:02;;;;;;;12.50;4.40;;;;;;;1.53;93.20;99023.80;269277;1272;22654;-91
2023/02/03 10:28:13;;;;;;;15.10;6.60;;;;;;;1.49;93.47;99002.38;269650;1272;22571;-90
2023/02/03 10:34:17;;;;;;;7.40;4.10;;;;;;;1.48;94.04;98982.58;269739;1272;27635;-91
2023/02/03 10:40:22;;;;;;;7.80;3.50;;;;;;;1.50;94.74;98958.63;271965;1271;22365;-90
2023/02/03 10:46:33;;;;;;;7.20;3.50;;;;;;;1.50;94.83;98933.03;270221;1272;22599;-89
2023/02/03 10:52:35;;;;;;;6.90;3.10;;;;;;;1.43;95.41;98908.52;270478;1272;23349;-90
2023/02/03 10:58:40;;;;;;;5.80;2.60;;;;;;;1.35;95.13;98884.95;270866;1270;22324;-90
2023/02/03 11:04:44;;;;;;;4.50;2.40;;;;;;;1.09;95.35;98865.48;271278;1272;24009;-89
2023/02/03 11:10:46;;;;;;;5.60;2.80;;;;;;;0.96;95.84;98851.64;270415;1271;24204;-89
2023/02/03 11:16:49;;;;;;;10.50;3.30;;;;;;;0.83;96.03;98826.80;269970;1272;23326;-89
2023/02/03 11:22:54;;;;;;;8.60;3.60;;;;;;;0.78;96.15;98805.61;269666;1272;23343;-87
2023/02/03 11:28:59;;;;;;;9.90;4.70;;;;;;;0.70;96.57;98779.69;270192;1272;22549;-89
2023/02/03 11:35:04;;;;;;;8.20;3.80;;;;;;;0.64;96.93;98762.73;269459;1272;22652;-90
2023/02/03 11:41:17;;;;;;;10.10;4.80;;;;;;;0.49;97.04;98738.55;269726;1272;23421;-90
2023/02/03 11:47:19;;;;;;;7.40;4.00;;;;;;;0.33;97.52;98716.27;269912;1272;22487;-90
2023/02/03 11:53:26;;;;;;;9.60;4.30;;;;;;;0.24;97.97;98696.98;269485;1272;25425;-89
2023/02/03 11:59:44;;;;;;;;;;;;;;;0.21;98.37;98673.13;268683;1272;23002;-90
2023/02/03 12:05:58;;;;;;;11.00;5.40;;;;;;;0.17;98.85;98642.73;268817;1272;22651;-90
2023/02/03 12:12:21;;;;;;;9.80;4.90;;;;;;;0.13;99.39;98616.48;268694;1271;25461;-90
2023/02/03 12:18:45;;;;;;;10.50;4.80;;;;;;;0.11;99.88;98592.26;269967;1272;22380;-90
2023/02/03 12:25:04;;;;;;;12.30;4.40;;;;;;;0.14;100.00;98564.70;268979;1272;23733;-90
2023/02/03 12:31:31;;;;;;;10.10;5.00;;;;;;;0.15;100.00;98545.61;269980;1272;22186;-89
2023/02/03 12:38:02;;;;;;;17.40;7.00;;;;;;;0.18;100.00;98528.58;272978;1272;22294;-90
2023/02/03 12:44:15;;;;;;;21.40;9.30;;;;;;;0.20;100.00;98510.29;270373;1272;22363;-89
2023/02/03 12:50:20;;;;;;;19.30;8.20;;;;;;;0.22;100.00;98493.45;271475;1271;22527;-90
2023/02/03 12:56:27;;;;;;;16.80;6.40;;;;;;;0.24;100.00;98465.92;271118;1272;23389;-90
2023/02/03 13:02:34;;;;;;;11.20;4.80;;;;;;;0.23;100.00;98448.45;272657;1272;22376;-89
2023/02/03 13:08:38;;;;;;;13.20;4.90;;;;;;;0.23;100.00;98429.60;272684;1272;22194;-89
2023/02/03 13:14:44;;;;;;;9.10;4.50;;;;;;;0.24;100.00;98410.15;272678;1272;22442;-89
2023/02/03 13:20:46;;;;;;;5.70;3.60;;;;;;;0.25;100.00;98400.19;272753;1272;22992;-88
2023/02/03 13:27:16;;;;;;;9.30;4.20;;;;;;;0.25;100.00;98387.81;272818;1272;22973;-90
2023/02/03 13:33:59;;;;;;;8.20;4.10;;;;;;;0.23;100.00;98369.27;272787;1272;22347;-88
2023/02/03 13:40:13;;;;;;;10.60;4.70;;;;;;;0.23;100.00;98349.75;272125;1272;24993;-89
2023/02/03 13:46:33;;;;;;;10.40;4.80;;;;;;;0.22;100.00;98330.39;272610;1271;22581;-89
2023/02/03 13:52:45;;;;;;;10.00;5.00;;;;;;;0.18;100.00;98313.84;271721;1272;22582;-89
2023/02/03 13:59:04;;;;;;;9.60;5.80;;;;;;;0.17;100.00;98300.90;272464;1272;23027;-90
2023/02/03 14:05:28;;;;;;;11.20;5.00;;;;;;;0.17;100.00;98288.73;272570;1272;22436;-87
2023/02/03 14:11:36;;;;;;;11.40;5.80;;;;;;;0.14;100.00;98268.11;271458;1272;22331;-89
2023/02/03 14:17:41;;;;;;;9.70;5.20;;;;;;;0.13;100.00;98245.98;272538;1271;22218;-90
2023/02/03 14:24:06;;;;;;;8.30;5.20;;;;;;;0.12;100.00;98232.27;271655;1272;22602;-90
2023/02/03 14:30:15;;;;;;;11.10;5.90;;;;;;;0.10;100.00;98209.58;270048;1272;22579;-90
2023/02/03 14:36:27;;;;;;;7.30;4.50;;;;;;;0.09;100.00;98194.45;270857;1273;25048;-89
2023/02/03 14:43:11;;;;;;;8.70;4.70;;;;;;;0.07;100.00;98182.25;271975;1262;22231;-88
2023/02/03 14:49:49;;;;;;;8.30;5.00;;;;;;;0.07;100.00;98161.96;272315;1272;23004;-88
2023/02/03 14:56:06;;;;;;;10.00;6.00;;;;;;;0.06;100.00;98145.60;272698;1272;23741;-87
2023/02/03 15:02:21;;;;;;;11.30;6.60;;;;;;;0.06;100.00;98141.70;272310;1272;22348;-87
2023/02/03 15:23:18;;;;;;;18.60;8.00;;;;;;;0.11;100.00;98117.89;271348;1277;22462;-89
2023/02/03 15:29:35;;;;;;;15.40;7.00;;;;;;;0.13;100.00;98121.81;270087;1277;24230;-90
2023/02/03 15:35:37;;;;;;;;;;;;;;;0.13;100.00;98130.89;269443;1277;23408;-92
2023/02/03 15:41:40;;;;;;;9.70;6.10;;;;;;;0.15;100.00;98132.42;269584;1277;22555;-91
2023/02/03 15:48:08;;;;;;;14.10;8.20;;;;;;;0.19;100.00;98138.66;271012;1277;23646;-92
2023/02/03 16:02:48;;;;;;;12.70;5.90;;;;;;;0.31;100.00;98140.16;270107;1277;22593;-93
2023/02/03 16:08:58;;;;;;;10.10;5.20;;;;;;;0.39;100.00;98112.80;270645;1272;22565;-95
2023/02/03 16:15:25;;;;;;;21.20;9.60;;;;;;;0.47;100.00;98115.86;270488;1271;23089;-93
2023/02/03 16:21:43;;;;;;;20.60;10.10;;;;;;;0.60;100.00;98107.00;270439;1272;22586;-92
2023/02/03 16:53:29;;;;;;;10.50;4.80;;;;;;;1.26;100.00;98120.77;271056;1264;22573;-92
2023/02/03 16:59:31;;;;;;;10.40;4.80;;;;;;;1.32;100.00;98123.81;270632;1272;22070;-91
2023/02/03 17:05:40;;;;;;;12.60;5.90;;;;;;;1.36;100.00;98136.68;270827;1272;22676;-92
2023/02/03 17:11:43;;;;;;;17.40;6.40;;;;;;;1.39;100.00;98144.17;270000;1272;23756;-91
2023/02/03 17:17:52;;;;;;;18.50;8.30;;;;;;;1.39;100.00;98144.45;269402;1272;24088;-91
2023/02/03 17:23:58;;;;;;;21.20;7.30;;;;;;;1.38;100.00;98142.75;270335;1272;22567;-92
2023/02/03 17:30:00;;;;;;;16.10;6.60;;;;;;;1.42;100.00;98152.27;269790;1273;22603;-91
2023/02/03 17:36:10;;;;;;;13.90;5.70;;;;;;;1.45;100.00;98168.48;270690;1272;24115;-94
2023/02/03 17:42:24;;;;;;;10.10;5.00;;;;;;;1.49;100.00;98184.18;271041;1272;22525;-94
2023/02/03 17:48:28;;;;;;;16.80;6.30;;;;;;;1.54;100.00;98187.81;271046;1272;22634;-94
2023/02/03 17:54:30;;;;;;;17.00;6.90;;;;;;;1.62;100.00;98197.77;270833;1272;23596;-92
2023/02/03 18:00:39;;;;;;;13.80;6.40;;;;;;;1.60;100.00;98209.00;270690;1256;22581;-93
2023/02/03 18:06:41;;;;;;;20.60;7.50;;;;;;;1.62;100.00;98217.36;270850;1271;23310;-92
2023/02/03 18:12:44;;;;;;;17.70;7.00;;;;;;;1.56;100.00;98211.55;270609;1272;22578;-92
2023/02/03 18:18:51;;;;;;;21.00;8.10;;;;;;;1.51;100.00;98202.73;269811;1272;22551;-96
2023/02/03 18:24:54;;;;;;;18.30;7.10;;;;;;;1.47;100.00;98207.63;270053;1272;22539;-92
2023/02/03 18:31:07;;;;;;;22.20;8.80;;;;;;;1.49;100.00;98215.25;270714;1272;22561;-93
2023/02/03 18:37:21;;;;;;;22.90;10.00;;;;;;;1.53;100.00;98218.38;263550;1270;10002007;-92
2023/02/03 18:43:30;;;;;;;24.60;9.30;;;;;;;1.49;100.00;98215.23;271222;1268;22227;-95
2023/02/03 18:49:46;;;;;;;27.90;8.80;;;;;;;1.47;100.00;98218.04;270592;1272;26994;-93
2023/02/03 18:55:52;;;;;;;25.80;9.60;;;;;;;1.54;100.00;98226.27;271104;1272;22569;-94
2023/02/03 19:02:15;;;;;;;25.40;9.60;;;;;;;1.54;100.00;98234.14;270315;1272;22613;-95
2023/02/03 19:09:07;;;;;;;29.00;10.50;;;;;;;1.55;100.00;98239.10;270565;1272;23980;-93
2023/02/03 19:16:01;;;;;;;30.20;11.70;;;;;;;1.51;100.00;98244.14;271067;1272;22650;-94
2023/02/03 19:22:20;;;;;;;24.10;10.40;;;;;;;1.51;100.00;98248.58;270838;1272;22726;-93
2023/02/03 19:28:36;;;;;;;29.80;10.80;;;;;;;1.51;100.00;98256.01;270071;1272;22517;-92
2023/02/03 19:34:47;;;;;;;30.70;10.90;;;;;;;1.52;100.00;98256.19;270376;1272;23319;-92
2023/02/03 19:41:29;;;;;;;28.50;10.50;;;;;;;1.53;100.00;98262.08;270360;1272;23489;-93
2023/02/03 19:47:48;;;;;;;26.20;9.70;;;;;;;1.55;100.00;98273.33;270606;1272;22879;-94
2023/02/03 19:54:34;;;;;;;32.10;12.00;;;;;;;1.54;100.00;98272.35;270188;1272;22563;-92
2023/02/03 20:01:25;;;;;;;32.20;11.00;;;;;;;1.55;100.00;98272.25;270765;1272;24051;-93
2023/02/03 20:08:55;;;;;;;28.30;10.50;;;;;;;1.57;100.00;98271.00;270712;1262;22618;-95
2023/02/03 20:16:17;;;;;;;;;;;;;;;;;;;;;
2023/02/03 20:22:57;;;;;;;28.00;9.40;;;;;;;1.55;100.00;98281.27;271660;1272;22571;-94
2023/02/03 20:36:22;;;;;;;28.80;9.80;;;;;;;1.52;100.00;98278.08;269204;1277;22519;-91
2023/02/03 20:42:27;;;;;;;;;;;;;;;1.51;100.00;98275.27;269984;1277;22542;-92
2023/02/03 20:48:36;;;;;;;23.90;9.50;;;;;;;1.50;100.00;98271.89;268706;1277;22590;-91
2023/02/03 20:54:45;;;;;;;14.90;7.30;;;;;;;1.46;100.00;98274.79;268619;1277;22599;-91
2023/02/03 21:00:51;;;;;;;17.40;6.70;;;;;;;1.46;100.00;98273.46;268358;1277;22988;-92
2023/02/03 21:06:54;;;;;;;13.40;6.20;;;;;;;1.44;100.00;98269.95;268356;1277;22569;-91
2023/02/03 21:12:58;;;;;;;16.80;6.90;;;;;;;1.42;100.00;98276.10;268429;1277;23305;-92
2023/02/03 21:19:11;;;;;;;16.00;7.50;;;;;;;1.41;100.00;98278.54;268155;1276;25524;-92
2023/02/03 21:25:36;;;;;;;20.80;9.80;;;;;;;1.38;100.00;98273.81;268247;1274;22611;-91
2023/02/03 21:31:42;;;;;;;24.70;9.00;;;;;;;1.37;100.00;98268.46;268271;1275;22667;-91
2023/02/03 21:37:46;;;;;;;16.40;6.60;;;;;;;1.39;100.00;98266.75;268568;1277;24276;-93
2023/02/03 21:44:00;;;;;;;27.10;8.00;;;;;;;1.40;100.00;98271.48;268577;1275;22566;-90
2023/02/03 21:50:49;;;;;;;25.80;8.80;;;;;;;1.44;100.00;98273.63;268429;1275;24081;-91
2023/02/03 21:57:14;;;;;;;16.20;7.90;;;;;;;1.47;100.00;98270.72;267856;1277;22586;-91
2023/02/03 22:03:30;;;;;;;18.90;7.10;;;;;;;1.47;100.00;98273.28;267991;1275;22543;-92
2023/02/03 22:09:38;;;;;;;25.30;9.20;;;;;;;1.48;100.00;98271.63;268465;1275;22804;-92
2023/02/03 22:15:43;;;;;;;18.40;6.20;;;;;;;1.50;100.00;98273.15;268314;1275;22947;-94
2023/02/03 22:21:49;;;;;;;27.90;8.90;;;;;;;1.52;100.00;98270.81;268035;1276;26624;-92
2023/02/03 22:27:54;;;;;;;24.40;9.70;;;;;;;1.52;100.00;98266.59;267968;1275;23504;-92
2023/02/03 22:34:01;;;;;;;26.20;9.70;;;;;;;1.52;100.00;98262.95;267616;1275;22678;-92
2023/02/03 22:40:04;;;;;;;30.00;11.40;;;;;;;1.51;100.00;98266.26;267715;1277;22531;-91
2023/02/03 22:46:10;;;;;;;40.90;14.50;;;;;;;1.52;100.00;98257.03;267762;1276;23294;-91
2023/02/03 22:52:15;;;;;;;34.00;11.90;;;;;;;1.55;100.00;98257.84;268010;1275;22622;-91
2023/02/03 22:58:26;;;;;;;30.10;10.30;;;;;;;1.57;100.00;98258.52;267557;1277;22559;-92
2023/02/03 23:04:30;;;;;;;22.20;10.00;;;;;;;1.59;100.00;98256.88;267689;1275;22559;-93
2023/02/03 23:10:33;;;;;;;30.60;9.30;;;;;;;1.61;100.00;98256.27;267560;1275;24388;-91
2023/02/03 23:16:40;;;;;;;23.50;8.60;;;;;;;1.63;100.00;98255.17;267831;1277;22691;-91
2023/02/03 23:22:44;;;;;;;32.10;10.30;;;;;;;1.64;100.00;98249.11;268032;1276;22684;-91
2023/02/03 23:28:49;;;;;;;25.30;9.70;;;;;;;1.68;100.00;98245.69;268033;1275;25539;-91
2023/02/03 23:41:19;;;;;;;26.90;10.20;;;;;;;1.77;100.00;98233.29;267855;1276;22606;-90
2023/02/03 23:47:23;;;;;;;40.80;11.40;;;;;;;1.81;100.00;98228.02;268029;1276;22769;-92
2023/02/03 23:53:26;;;;;;;34.70;10.50;;;;;;;1.86;100.00;98221.77;267620;1276;22641;-91
2023/02/03 23:59:29;;;;;;;26.70;9.90;;;;;;;1.92;100.00;98212.79;268102;1262;22541;-91
